CYYZ/YYZ METAR and TAF weather

Enter ICAO airport designator
Station Type Date Time Source
CYYZ METAR 2019/01/21 22:00 UTC NOAA

CYYZ 212200Z 29015KT 15SM FEW040 M12/M20 A3046 RMK SC1 SLP333


Station Type Date Time Source
CYYZ Decoded METAR 2019/01/21 22:00 UTC NOAA

Toronto Pearson Int'L. Ont., Canada (CYYZ) 43-40N 079-38W 173M
Jan 21, 2019 - 05:00 PM EST / 2019.01.21 2200 UTC
Wind: from the WNW (290 degrees) at 17 MPH (15 KT):0
Visibility: 15 mile(s):0
Sky conditions: mostly clear
Temperature: 10 F (-12 C)
Windchill: -7 F (-22 C):2
Dew Point: -4 F (-20 C)
Relative Humidity: 51%
Pressure (altimeter): 30.46 in. Hg (1031 hPa)
ob: CYYZ 212200Z 29015KT 15SM FEW040 M12/M20 A3046 RMK SC1 SLP333
cycle: 22

Station Type Date Time Source
CYYZ TAF 2019/01/21 21:43 UTC NOAA

TAF CYYZ 212038Z 2121/2224 31012G22KT P6SM FEW025
BECMG 2200/2201 31010KT
FM220600 30005KT P6SM SCT250
BECMG 2208/2209 VRB03KT
FM221400 17005KT P6SM BKN120 OVC200
FM221800 14010G20KT P6SM OVC100
RMK NXT FCST BY 220000Z


Example: see airport list